sensor_id;sensor_type;location;lat;lon;timestamp;temperature;humidity
85830;DHT22;76277;49.212;16.680;2024-03-29T00:00:49;4.11;97.51
85830;DHT22;76277;49.212;16.680;2024-03-29T00:03:34;4.11;97.51
85830;DHT22;76277;49.212;16.680;2024-03-29T00:06:18;4.11;97.51
85830;DHT22;76277;49.212;16.680;2024-03-29T00:09:03;4.11;97.51
85830;DHT22;76277;49.212;16.680;2024-03-29T00:11:48;4.11;97.51
85830;DHT22;76277;49.212;16.680;2024-03-29T00:14:33;4.16;97.11
85830;DHT22;76277;49.212;16.680;2024-03-29T00:17:17;4.16;97.11
85830;DHT22;76277;49.212;16.680;2024-03-29T00:20:02;4.16;97.11
85830;DHT22;76277;49.212;16.680;2024-03-29T00:22:47;4.16;97.11
85830;DHT22;76277;49.212;16.680;2024-03-29T00:25:31;4.16;97.11
85830;DHT22;76277;49.212;16.680;2024-03-29T00:28:16;4.21;96.34
85830;DHT22;76277;49.212;16.680;2024-03-29T00:31:01;4.21;96.34
85830;DHT22;76277;49.212;16.680;2024-03-29T00:33:45;4.21;96.34
85830;DHT22;76277;49.212;16.680;2024-03-29T00:36:30;4.21;96.34
85830;DHT22;76277;49.212;16.680;2024-03-29T00:39:14;4.21;96.34
85830;DHT22;76277;49.212;16.680;2024-03-29T00:42:00;4.21;96.34
85830;DHT22;76277;49.212;16.680;2024-03-29T00:44:44;4.05;96.51
85830;DHT22;76277;49.212;16.680;2024-03-29T00:47:28;4.05;96.51
85830;DHT22;76277;49.212;16.680;2024-03-29T00:50:13;4.05;96.51
85830;DHT22;76277;49.212;16.680;2024-03-29T00:52:58;4.05;96.51
85830;DHT22;76277;49.212;16.680;2024-03-29T00:55:43;4.05;96.51
85830;DHT22;76277;49.212;16.680;2024-03-29T00:58:27;3.75;97.31
85830;DHT22;76277;49.212;16.680;2024-03-29T01:01:12;3.75;97.31
85830;DHT22;76277;49.212;16.680;2024-03-29T01:03:56;3.75;97.31
85830;DHT22;76277;49.212;16.680;2024-03-29T01:06:41;3.75;97.31
85830;DHT22;76277;49.212;16.680;2024-03-29T01:09:26;3.75;97.31
85830;DHT22;76277;49.212;16.680;2024-03-29T01:12:10;3.75;97.31
85830;DHT22;76277;49.212;16.680;2024-03-29T01:14:55;3.63;97.56
85830;DHT22;76277;49.212;16.680;2024-03-29T01:17:40;3.63;97.56
85830;DHT22;76277;49.212;16.680;2024-03-29T01:20:24;3.63;97.56
85830;DHT22;76277;49.212;16.680;2024-03-29T01:23:09;3.63;97.56
85830;DHT22;76277;49.212;16.680;2024-03-29T01:25:54;3.63;97.56
85830;DHT22;76277;49.212;16.680;2024-03-29T01:28:38;3.70;96.58
85830;DHT22;76277;49.212;16.680;2024-03-29T01:31:24;3.70;96.58
85830;DHT22;76277;49.212;16.680;2024-03-29T01:34:08;3.70;96.58
85830;DHT22;76277;49.212;16.680;2024-03-29T01:36:52;3.70;96.58
85830;DHT22;76277;49.212;16.680;2024-03-29T01:39:37;3.70;96.58
85830;DHT22;76277;49.212;16.680;2024-03-29T01:42:22;3.70;96.58
85830;DHT22;76277;49.212;16.680;2024-03-29T01:47:51;3.86;95.45
85830;DHT22;76277;49.212;16.680;2024-03-29T01:50:36;3.86;95.45
85830;DHT22;76277;49.212;16.680;2024-03-29T01:53:20;3.86;95.45
85830;DHT22;76277;49.212;16.680;2024-03-29T01:56:05;3.86;95.45
85830;DHT22;76277;49.212;16.680;2024-03-29T01:58:51;3.33;97.26
85830;DHT22;76277;49.212;16.680;2024-03-29T02:01:34;3.33;97.26
85830;DHT22;76277;49.212;16.680;2024-03-29T02:04:19;3.33;97.26
85830;DHT22;76277;49.212;16.680;2024-03-29T02:07:04;3.33;97.26
85830;DHT22;76277;49.212;16.680;2024-03-29T02:09:48;3.33;97.26
85830;DHT22;76277;49.212;16.680;2024-03-29T02:12:33;3.04;98.30
85830;DHT22;76277;49.212;16.680;2024-03-29T02:15:18;3.04;98.30
85830;DHT22;76277;49.212;16.680;2024-03-29T02:18:02;3.04;98.30
85830;DHT22;76277;49.212;16.680;2024-03-29T02:20:47;3.04;98.30
85830;DHT22;76277;49.212;16.680;2024-03-29T02:23:32;3.04;98.30
85830;DHT22;76277;49.212;16.680;2024-03-29T02:26:16;3.04;98.30
85830;DHT22;76277;49.212;16.680;2024-03-29T02:29:01;3.09;97.94
85830;DHT22;76277;49.212;16.680;2024-03-29T02:31:46;3.09;97.94
85830;DHT22;76277;49.212;16.680;2024-03-29T02:34:30;3.09;97.94
85830;DHT22;76277;49.212;16.680;2024-03-29T02:37:15;3.09;97.94
85830;DHT22;76277;49.212;16.680;2024-03-29T02:40:00;3.09;97.94
85830;DHT22;76277;49.212;16.680;2024-03-29T02:42:44;2.25;100.60
85830;DHT22;76277;49.212;16.680;2024-03-29T02:45:29;2.25;100.60
85830;DHT22;76277;49.212;16.680;2024-03-29T02:48:13;2.25;100.60
85830;DHT22;76277;49.212;16.680;2024-03-29T02:50:58;2.25;100.60
85830;DHT22;76277;49.212;16.680;2024-03-29T02:53:43;2.25;100.60
85830;DHT22;76277;49.212;16.680;2024-03-29T02:56:27;2.25;100.60
85830;DHT22;76277;49.212;16.680;2024-03-29T02:59:12;3.02;98.97
85830;DHT22;76277;49.212;16.680;2024-03-29T03:01:57;3.02;98.97
85830;DHT22;76277;49.212;16.680;2024-03-29T03:04:42;3.02;98.97
85830;DHT22;76277;49.212;16.680;2024-03-29T03:07:26;3.02;98.97
85830;DHT22;76277;49.212;16.680;2024-03-29T03:10:12;3.02;98.97
85830;DHT22;76277;49.212;16.680;2024-03-29T03:12:55;2.34;101.22
85830;DHT22;76277;49.212;16.680;2024-03-29T03:15:40;2.34;101.22
85830;DHT22;76277;49.212;16.680;2024-03-29T03:18:26;2.34;101.22
85830;DHT22;76277;49.212;16.680;2024-03-29T03:21:09;2.34;101.22
85830;DHT22;76277;49.212;16.680;2024-03-29T03:23:54;2.34;101.22
85830;DHT22;76277;49.212;16.680;2024-03-29T03:26:39;2.34;101.22
85830;DHT22;76277;49.212;16.680;2024-03-29T03:29:23;2.10;102.00
85830;DHT22;76277;49.212;16.680;2024-03-29T03:32:08;2.10;102.00
85830;DHT22;76277;49.212;16.680;2024-03-29T03:34:53;2.10;102.00
85830;DHT22;76277;49.212;16.680;2024-03-29T03:37:38;2.10;102.00
85830;DHT22;76277;49.212;16.680;2024-03-29T03:40:22;2.10;102.00
85830;DHT22;76277;49.212;16.680;2024-03-29T03:43:07;1.68;102.04
85830;DHT22;76277;49.212;16.680;2024-03-29T03:45:51;1.68;102.04
85830;DHT22;76277;49.212;16.680;2024-03-29T03:48:36;1.68;102.04
85830;DHT22;76277;49.212;16.680;2024-03-29T03:51:21;1.68;102.04
85830;DHT22;76277;49.212;16.680;2024-03-29T03:54:05;1.68;102.04
85830;DHT22;76277;49.212;16.680;2024-03-29T03:56:50;1.68;102.04
85830;DHT22;76277;49.212;16.680;2024-03-29T03:59:35;1.60;102.30
85830;DHT22;76277;49.212;16.680;2024-03-29T04:02:19;1.60;102.30
85830;DHT22;76277;49.212;16.680;2024-03-29T04:05:05;1.60;102.30
85830;DHT22;76277;49.212;16.680;2024-03-29T04:07:49;1.60;102.30
85830;DHT22;76277;49.212;16.680;2024-03-29T04:10:37;1.60;102.30
85830;DHT22;76277;49.212;16.680;2024-03-29T04:13:18;1.58;102.37
85830;DHT22;76277;49.212;16.680;2024-03-29T04:16:03;1.58;102.37
85830;DHT22;76277;49.212;16.680;2024-03-29T04:18:47;1.58;102.37
85830;DHT22;76277;49.212;16.680;2024-03-29T04:21:32;1.58;102.37
85830;DHT22;76277;49.212;16.680;2024-03-29T04:24:17;1.58;102.37
85830;DHT22;76277;49.212;16.680;2024-03-29T04:27:01;1.58;102.37
85830;DHT22;76277;49.212;16.680;2024-03-29T04:29:46;2.08;102.41
85830;DHT22;76277;49.212;16.680;2024-03-29T04:32:31;2.08;102.41
85830;DHT22;76277;49.212;16.680;2024-03-29T04:35:16;2.08;102.41
85830;DHT22;76277;49.212;16.680;2024-03-29T04:38:00;2.08;102.41
85830;DHT22;76277;49.212;16.680;2024-03-29T04:40:45;2.08;102.41
85830;DHT22;76277;49.212;16.680;2024-03-29T04:43:29;1.52;102.22
85830;DHT22;76277;49.212;16.680;2024-03-29T04:46:14;1.52;102.22
85830;DHT22;76277;49.212;16.680;2024-03-29T04:48:59;1.52;102.22
85830;DHT22;76277;49.212;16.680;2024-03-29T04:51:43;1.52;102.22
85830;DHT22;76277;49.212;16.680;2024-03-29T04:54:28;1.52;102.22
85830;DHT22;76277;49.212;16.680;2024-03-29T04:57:13;1.52;102.22
85830;DHT22;76277;49.212;16.680;2024-03-29T04:59:57;1.58;102.33
85830;DHT22;76277;49.212;16.680;2024-03-29T05:02:42;1.58;102.33
85830;DHT22;76277;49.212;16.680;2024-03-29T05:05:28;1.58;102.33
85830;DHT22;76277;49.212;16.680;2024-03-29T05:08:11;1.58;102.33
85830;DHT22;76277;49.212;16.680;2024-03-29T05:10:56;1.58;102.33
85830;DHT22;76277;49.212;16.680;2024-03-29T05:13:41;2.08;102.16
85830;DHT22;76277;49.212;16.680;2024-03-29T05:16:25;2.08;102.16
85830;DHT22;76277;49.212;16.680;2024-03-29T05:19:10;2.08;102.16
85830;DHT22;76277;49.212;16.680;2024-03-29T05:21:55;2.08;102.16
85830;DHT22;76277;49.212;16.680;2024-03-29T05:24:39;2.08;102.16
85830;DHT22;76277;49.212;16.680;2024-03-29T05:27:24;2.08;102.16
85830;DHT22;76277;49.212;16.680;2024-03-29T05:32:53;2.53;101.56
85830;DHT22;76277;49.212;16.680;2024-03-29T05:35:38;2.53;101.56
85830;DHT22;76277;49.212;16.680;2024-03-29T05:38:23;2.53;101.56
85830;DHT22;76277;49.212;16.680;2024-03-29T05:41:07;2.53;101.56
85830;DHT22;76277;49.212;16.680;2024-03-29T05:43:52;3.47;100.38
85830;DHT22;76277;49.212;16.680;2024-03-29T05:46:37;3.47;100.38
85830;DHT22;76277;49.212;16.680;2024-03-29T05:49:22;3.47;100.38
85830;DHT22;76277;49.212;16.680;2024-03-29T05:52:06;3.47;100.38
85830;DHT22;76277;49.212;16.680;2024-03-29T05:54:51;3.47;100.38
85830;DHT22;76277;49.212;16.680;2024-03-29T05:57:35;3.47;100.38
85830;DHT22;76277;49.212;16.680;2024-03-29T06:00:20;3.27;100.91
85830;DHT22;76277;49.212;16.680;2024-03-29T06:03:05;3.27;100.91
85830;DHT22;76277;49.212;16.680;2024-03-29T06:05:49;3.27;100.91
85830;DHT22;76277;49.212;16.680;2024-03-29T06:08:34;3.27;100.91
85830;DHT22;76277;49.212;16.680;2024-03-29T06:11:19;3.27;100.91
85830;DHT22;76277;49.212;16.680;2024-03-29T06:14:03;3.69;99.15
85830;DHT22;76277;49.212;16.680;2024-03-29T06:16:48;3.69;99.15
85830;DHT22;76277;49.212;16.680;2024-03-29T06:19:33;3.69;99.15
85830;DHT22;76277;49.212;16.680;2024-03-29T06:22:17;3.69;99.15
85830;DHT22;76277;49.212;16.680;2024-03-29T06:25:02;3.69;99.15
85830;DHT22;76277;49.212;16.680;2024-03-29T06:27:47;3.69;99.15
85830;DHT22;76277;49.212;16.680;2024-03-29T06:30:31;4.41;96.61
85830;DHT22;76277;49.212;16.680;2024-03-29T06:33:16;4.41;96.61
85830;DHT22;76277;49.212;16.680;2024-03-29T06:36:01;4.41;96.61
85830;DHT22;76277;49.212;16.680;2024-03-29T06:38:45;4.41;96.61
85830;DHT22;76277;49.212;16.680;2024-03-29T06:41:30;4.41;96.61
85830;DHT22;76277;49.212;16.680;2024-03-29T06:44:15;4.74;96.20
85830;DHT22;76277;49.212;16.680;2024-03-29T06:46:59;4.74;96.20
85830;DHT22;76277;49.212;16.680;2024-03-29T06:49:44;4.74;96.20
85830;DHT22;76277;49.212;16.680;2024-03-29T06:52:29;4.74;96.20
85830;DHT22;76277;49.212;16.680;2024-03-29T06:55:13;4.74;96.20
85830;DHT22;76277;49.212;16.680;2024-03-29T06:57:58;4.74;96.20
85830;DHT22;76277;49.212;16.680;2024-03-29T07:00:43;5.41;94.75
85830;DHT22;76277;49.212;16.680;2024-03-29T07:03:27;5.41;94.75
85830;DHT22;76277;49.212;16.680;2024-03-29T07:06:12;5.41;94.75
85830;DHT22;76277;49.212;16.680;2024-03-29T07:08:57;5.41;94.75
85830;DHT22;76277;49.212;16.680;2024-03-29T07:11:41;5.41;94.75
85830;DHT22;76277;49.212;16.680;2024-03-29T07:14:26;5.85;92.00
85830;DHT22;76277;49.212;16.680;2024-03-29T07:17:11;5.85;92.00
85830;DHT22;76277;49.212;16.680;2024-03-29T07:19:55;5.85;92.00
85830;DHT22;76277;49.212;16.680;2024-03-29T07:22:40;5.85;92.00
85830;DHT22;76277;49.212;16.680;2024-03-29T07:25:24;5.85;92.00
85830;DHT22;76277;49.212;16.680;2024-03-29T07:28:09;5.85;92.00
85830;DHT22;76277;49.212;16.680;2024-03-29T07:30:54;7.21;88.76
85830;DHT22;76277;49.212;16.680;2024-03-29T07:33:39;7.21;88.76
85830;DHT22;76277;49.212;16.680;2024-03-29T07:36:23;7.21;88.76
85830;DHT22;76277;49.212;16.680;2024-03-29T07:39:08;7.21;88.76
85830;DHT22;76277;49.212;16.680;2024-03-29T07:41:52;7.21;88.76
85830;DHT22;76277;49.212;16.680;2024-03-29T07:44:37;7.06;88.24
85830;DHT22;76277;49.212;16.680;2024-03-29T07:47:22;7.06;88.24
85830;DHT22;76277;49.212;16.680;2024-03-29T07:50:07;7.06;88.24
85830;DHT22;76277;49.212;16.680;2024-03-29T07:52:51;7.06;88.24
85830;DHT22;76277;49.212;16.680;2024-03-29T07:55:37;7.06;88.24
85830;DHT22;76277;49.212;16.680;2024-03-29T07:58:21;7.06;88.24
85830;DHT22;76277;49.212;16.680;2024-03-29T08:01:05;7.62;84.88
85830;DHT22;76277;49.212;16.680;2024-03-29T08:03:50;7.62;84.88
85830;DHT22;76277;49.212;16.680;2024-03-29T08:06:35;7.62;84.88
85830;DHT22;76277;49.212;16.680;2024-03-29T08:09:19;7.62;84.88
85830;DHT22;76277;49.212;16.680;2024-03-29T08:12:04;7.62;84.88
85830;DHT22;76277;49.212;16.680;2024-03-29T08:14:49;8.40;83.83
85830;DHT22;76277;49.212;16.680;2024-03-29T08:17:33;8.40;83.83
85830;DHT22;76277;49.212;16.680;2024-03-29T08:20:18;8.40;83.83
85830;DHT22;76277;49.212;16.680;2024-03-29T08:23:03;8.40;83.83
85830;DHT22;76277;49.212;16.680;2024-03-29T08:25:47;8.40;83.83
85830;DHT22;76277;49.212;16.680;2024-03-29T08:28:32;8.40;83.83
85830;DHT22;76277;49.212;16.680;2024-03-29T08:31:16;9.19;79.16
85830;DHT22;76277;49.212;16.680;2024-03-29T08:34:01;9.19;79.16
85830;DHT22;76277;49.212;16.680;2024-03-29T08:36:46;9.19;79.16
85830;DHT22;76277;49.212;16.680;2024-03-29T08:39:31;9.19;79.16
85830;DHT22;76277;49.212;16.680;2024-03-29T08:42:15;9.19;79.16
85830;DHT22;76277;49.212;16.680;2024-03-29T08:45:00;10.20;70.08
85830;DHT22;76277;49.212;16.680;2024-03-29T08:47:44;10.20;70.08
85830;DHT22;76277;49.212;16.680;2024-03-29T08:50:29;10.20;70.08
85830;DHT22;76277;49.212;16.680;2024-03-29T08:53:15;10.20;70.08
85830;DHT22;76277;49.212;16.680;2024-03-29T08:55:59;10.20;70.08
85830;DHT22;76277;49.212;16.680;2024-03-29T08:58:43;10.20;70.08
85830;DHT22;76277;49.212;16.680;2024-03-29T09:01:28;10.93;63.49
85830;DHT22;76277;49.212;16.680;2024-03-29T09:04:13;10.93;63.49
85830;DHT22;76277;49.212;16.680;2024-03-29T09:06:57;10.93;63.49
85830;DHT22;76277;49.212;16.680;2024-03-29T09:09:42;10.93;63.49
85830;DHT22;76277;49.212;16.680;2024-03-29T09:12:26;10.93;63.49
85830;DHT22;76277;49.212;16.680;2024-03-29T09:15:11;11.88;63.66
85830;DHT22;76277;49.212;16.680;2024-03-29T09:17:56;11.88;63.66
85830;DHT22;76277;49.212;16.680;2024-03-29T09:20:40;11.88;63.66
85830;DHT22;76277;49.212;16.680;2024-03-29T09:23:25;11.88;63.66
85830;DHT22;76277;49.212;16.680;2024-03-29T09:26:10;11.88;63.66
85830;DHT22;76277;49.212;16.680;2024-03-29T09:28:54;11.88;63.66
85830;DHT22;76277;49.212;16.680;2024-03-29T09:31:39;12.46;59.98
85830;DHT22;76277;49.212;16.680;2024-03-29T09:34:25;12.46;59.98
85830;DHT22;76277;49.212;16.680;2024-03-29T09:37:08;12.46;59.98
85830;DHT22;76277;49.212;16.680;2024-03-29T09:39:53;12.46;59.98
85830;DHT22;76277;49.212;16.680;2024-03-29T09:42:38;12.46;59.98
85830;DHT22;76277;49.212;16.680;2024-03-29T09:45:22;12.87;58.80
85830;DHT22;76277;49.212;16.680;2024-03-29T09:48:08;12.87;58.80
85830;DHT22;76277;49.212;16.680;2024-03-29T09:50:52;12.87;58.80
85830;DHT22;76277;49.212;16.680;2024-03-29T09:53:37;12.87;58.80
85830;DHT22;76277;49.212;16.680;2024-03-29T09:56:21;12.87;58.80
85830;DHT22;76277;49.212;16.680;2024-03-29T09:59:06;12.87;58.80
85830;DHT22;76277;49.212;16.680;2024-03-29T10:01:50;13.35;59.99
85830;DHT22;76277;49.212;16.680;2024-03-29T10:04:35;13.35;59.99
85830;DHT22;76277;49.212;16.680;2024-03-29T10:07:20;13.35;59.99
85830;DHT22;76277;49.212;16.680;2024-03-29T10:10:05;13.35;59.99
85830;DHT22;76277;49.212;16.680;2024-03-29T10:12:54;13.35;59.99
85830;DHT22;76277;49.212;16.680;2024-03-29T10:15:34;13.92;63.48
85830;DHT22;76277;49.212;16.680;2024-03-29T10:18:18;13.92;63.48
85830;DHT22;76277;49.212;16.680;2024-03-29T10:21:04;13.92;63.48
85830;DHT22;76277;49.212;16.680;2024-03-29T10:23:48;13.92;63.48
85830;DHT22;76277;49.212;16.680;2024-03-29T10:26:33;13.92;63.48
85830;DHT22;76277;49.212;16.680;2024-03-29T10:29:17;13.92;63.48
85830;DHT22;76277;49.212;16.680;2024-03-29T10:32:02;14.45;61.53
85830;DHT22;76277;49.212;16.680;2024-03-29T10:34:48;14.45;61.53
85830;DHT22;76277;49.212;16.680;2024-03-29T10:37:31;14.45;61.53
85830;DHT22;76277;49.212;16.680;2024-03-29T10:40:17;14.45;61.53
85830;DHT22;76277;49.212;16.680;2024-03-29T10:43:00;14.45;61.53
85830;DHT22;76277;49.212;16.680;2024-03-29T10:45:45;15.27;61.94
85830;DHT22;76277;49.212;16.680;2024-03-29T10:48:30;15.27;61.94
85830;DHT22;76277;49.212;16.680;2024-03-29T10:51:14;15.27;61.94
85830;DHT22;76277;49.212;16.680;2024-03-29T10:53:59;15.27;61.94
85830;DHT22;76277;49.212;16.680;2024-03-29T10:56:46;15.27;61.94
85830;DHT22;76277;49.212;16.680;2024-03-29T10:59:30;16.00;59.64
85830;DHT22;76277;49.212;16.680;2024-03-29T11:02:15;16.00;59.64
85830;DHT22;76277;49.212;16.680;2024-03-29T11:04:58;16.00;59.64
85830;DHT22;76277;49.212;16.680;2024-03-29T11:07:42;16.00;59.64
85830;DHT22;76277;49.212;16.680;2024-03-29T11:10:29;16.00;59.64
85830;DHT22;76277;49.212;16.680;2024-03-29T11:13:12;16.00;59.64
85830;DHT22;76277;49.212;16.680;2024-03-29T11:15:56;16.87;57.79
85830;DHT22;76277;49.212;16.680;2024-03-29T11:18:42;16.87;57.79
85830;DHT22;76277;49.212;16.680;2024-03-29T11:21:26;16.87;57.79
85830;DHT22;76277;49.212;16.680;2024-03-29T11:24:10;16.87;57.79
85830;DHT22;76277;49.212;16.680;2024-03-29T11:26:55;16.87;57.79
85830;DHT22;76277;49.212;16.680;2024-03-29T11:29:41;18.22;54.67
85830;DHT22;76277;49.212;16.680;2024-03-29T11:35:13;18.22;54.67
85830;DHT22;76277;49.212;16.680;2024-03-29T11:37:55;18.22;54.67
85830;DHT22;76277;49.212;16.680;2024-03-29T11:40:39;18.22;54.67
85830;DHT22;76277;49.212;16.680;2024-03-29T11:43:23;18.22;54.67
85830;DHT22;76277;49.212;16.680;2024-03-29T11:46:08;20.45;51.14
85830;DHT22;76277;49.212;16.680;2024-03-29T11:48:52;20.45;51.14
85830;DHT22;76277;49.212;16.680;2024-03-29T11:51:37;20.45;51.14
85830;DHT22;76277;49.212;16.680;2024-03-29T11:54:23;20.45;51.14
85830;DHT22;76277;49.212;16.680;2024-03-29T11:57:06;20.45;51.14
85830;DHT22;76277;49.212;16.680;2024-03-29T11:59:51;27.51;40.25
85830;DHT22;76277;49.212;16.680;2024-03-29T12:02:35;27.51;40.25
85830;DHT22;76277;49.212;16.680;2024-03-29T12:05:20;27.51;40.25
85830;DHT22;76277;49.212;16.680;2024-03-29T12:08:05;27.51;40.25
85830;DHT22;76277;49.212;16.680;2024-03-29T12:10:50;27.51;40.25
85830;DHT22;76277;49.212;16.680;2024-03-29T12:13:34;27.51;40.25
85830;DHT22;76277;49.212;16.680;2024-03-29T12:16:19;30.31;35.50
85830;DHT22;76277;49.212;16.680;2024-03-29T12:19:04;30.31;35.50
85830;DHT22;76277;49.212;16.680;2024-03-29T12:21:48;30.31;35.50
85830;DHT22;76277;49.212;16.680;2024-03-29T12:24:33;30.31;35.50
85830;DHT22;76277;49.212;16.680;2024-03-29T12:27:17;30.31;35.50
85830;DHT22;76277;49.212;16.680;2024-03-29T12:30:03;24.86;42.91
85830;DHT22;76277;49.212;16.680;2024-03-29T12:32:47;24.86;42.91
85830;DHT22;76277;49.212;16.680;2024-03-29T12:35:32;24.86;42.91
85830;DHT22;76277;49.212;16.680;2024-03-29T12:38:17;24.86;42.91
85830;DHT22;76277;49.212;16.680;2024-03-29T12:41:01;24.86;42.91
85830;DHT22;76277;49.212;16.680;2024-03-29T12:43:45;24.86;42.91
85830;DHT22;76277;49.212;16.680;2024-03-29T12:46:30;24.22;44.01
85830;DHT22;76277;49.212;16.680;2024-03-29T12:49:15;24.22;44.01
85830;DHT22;76277;49.212;16.680;2024-03-29T12:52:00;24.22;44.01
85830;DHT22;76277;49.212;16.680;2024-03-29T12:54:44;24.22;44.01
85830;DHT22;76277;49.212;16.680;2024-03-29T12:57:29;24.22;44.01
85830;DHT22;76277;49.212;16.680;2024-03-29T13:00:14;26.92;39.92
85830;DHT22;76277;49.212;16.680;2024-03-29T13:02:58;26.92;39.92
85830;DHT22;76277;49.212;16.680;2024-03-29T13:05:43;26.92;39.92
85830;DHT22;76277;49.212;16.680;2024-03-29T13:08:28;26.92;39.92
85830;DHT22;76277;49.212;16.680;2024-03-29T13:11:12;26.92;39.92
85830;DHT22;76277;49.212;16.680;2024-03-29T13:13:57;26.92;39.92
85830;DHT22;76277;49.212;16.680;2024-03-29T13:16:41;20.98;51.43
85830;DHT22;76277;49.212;16.680;2024-03-29T13:19:26;20.98;51.43
85830;DHT22;76277;49.212;16.680;2024-03-29T13:22:11;20.98;51.43
85830;DHT22;76277;49.212;16.680;2024-03-29T13:24:55;20.98;51.43
85830;DHT22;76277;49.212;16.680;2024-03-29T13:27:40;20.98;51.43
85830;DHT22;76277;49.212;16.680;2024-03-29T13:30:25;25.37;43.87
85830;DHT22;76277;49.212;16.680;2024-03-29T13:33:10;25.37;43.87
85830;DHT22;76277;49.212;16.680;2024-03-29T13:35:54;25.37;43.87
85830;DHT22;76277;49.212;16.680;2024-03-29T13:38:39;25.37;43.87
85830;DHT22;76277;49.212;16.680;2024-03-29T13:41:23;25.37;43.87
85830;DHT22;76277;49.212;16.680;2024-03-29T13:44:08;25.37;43.87
85830;DHT22;76277;49.212;16.680;2024-03-29T13:46:53;26.73;42.53
85830;DHT22;76277;49.212;16.680;2024-03-29T13:49:37;26.73;42.53
85830;DHT22;76277;49.212;16.680;2024-03-29T13:52:22;26.73;42.53
85830;DHT22;76277;49.212;16.680;2024-03-29T13:55:07;26.73;42.53
85830;DHT22;76277;49.212;16.680;2024-03-29T13:57:51;26.73;42.53
85830;DHT22;76277;49.212;16.680;2024-03-29T14:00:40;36.85;30.15
85830;DHT22;76277;49.212;16.680;2024-03-29T14:03:21;36.85;30.15
85830;DHT22;76277;49.212;16.680;2024-03-29T14:06:05;36.85;30.15
85830;DHT22;76277;49.212;16.680;2024-03-29T14:08:50;36.85;30.15
85830;DHT22;76277;49.212;16.680;2024-03-29T14:11:35;36.85;30.15
85830;DHT22;76277;49.212;16.680;2024-03-29T14:14:24;36.85;30.15
85830;DHT22;76277;49.212;16.680;2024-03-29T14:17:04;39.67;28.11
85830;DHT22;76277;49.212;16.680;2024-03-29T14:19:49;39.67;28.11
85830;DHT22;76277;49.212;16.680;2024-03-29T14:22:33;39.67;28.11
85830;DHT22;76277;49.212;16.680;2024-03-29T14:25:18;39.67;28.11
85830;DHT22;76277;49.212;16.680;2024-03-29T14:28:03;39.67;28.11
85830;DHT22;76277;49.212;16.680;2024-03-29T14:30:47;39.17;28.14
85830;DHT22;76277;49.212;16.680;2024-03-29T14:33:32;39.17;28.14
85830;DHT22;76277;49.212;16.680;2024-03-29T14:36:17;39.17;28.14
85830;DHT22;76277;49.212;16.680;2024-03-29T14:39:01;39.17;28.14
85830;DHT22;76277;49.212;16.680;2024-03-29T14:41:46;39.17;28.14
85830;DHT22;76277;49.212;16.680;2024-03-29T14:44:31;39.17;28.14
85830;DHT22;76277;49.212;16.680;2024-03-29T14:47:16;41.18;27.04
85830;DHT22;76277;49.212;16.680;2024-03-29T14:50:01;41.18;27.04
85830;DHT22;76277;49.212;16.680;2024-03-29T14:52:45;41.18;27.04
85830;DHT22;76277;49.212;16.680;2024-03-29T14:55:29;41.18;27.04
85830;DHT22;76277;49.212;16.680;2024-03-29T14:58:14;41.18;27.04
85830;DHT22;76277;49.212;16.680;2024-03-29T15:00:59;38.65;28.83
85830;DHT22;76277;49.212;16.680;2024-03-29T15:03:44;38.65;28.83
85830;DHT22;76277;49.212;16.680;2024-03-29T15:06:28;38.65;28.83
85830;DHT22;76277;49.212;16.680;2024-03-29T15:09:13;38.65;28.83
85830;DHT22;76277;49.212;16.680;2024-03-29T15:11:57;38.65;28.83
85830;DHT22;76277;49.212;16.680;2024-03-29T15:14:42;38.65;28.83
85830;DHT22;76277;49.212;16.680;2024-03-29T15:17:27;38.19;29.07
85830;DHT22;76277;49.212;16.680;2024-03-29T15:20:12;38.19;29.07
85830;DHT22;76277;49.212;16.680;2024-03-29T15:22:56;38.19;29.07
85830;DHT22;76277;49.212;16.680;2024-03-29T15:25:41;38.19;29.07
85830;DHT22;76277;49.212;16.680;2024-03-29T15:28:26;38.19;29.07
85830;DHT22;76277;49.212;16.680;2024-03-29T15:31:11;39.34;28.89
85830;DHT22;76277;49.212;16.680;2024-03-29T15:33:55;39.34;28.89
85830;DHT22;76277;49.212;16.680;2024-03-29T15:36:39;39.34;28.89
85830;DHT22;76277;49.212;16.680;2024-03-29T15:39:24;39.34;28.89
85830;DHT22;76277;49.212;16.680;2024-03-29T15:42:09;39.34;28.89
85830;DHT22;76277;49.212;16.680;2024-03-29T15:44:53;39.34;28.89
85830;DHT22;76277;49.212;16.680;2024-03-29T15:47:38;37.55;30.20
85830;DHT22;76277;49.212;16.680;2024-03-29T15:50:23;37.55;30.20
85830;DHT22;76277;49.212;16.680;2024-03-29T15:53:07;37.55;30.20
85830;DHT22;76277;49.212;16.680;2024-03-29T15:55:52;37.55;30.20
85830;DHT22;76277;49.212;16.680;2024-03-29T15:58:37;37.55;30.20
85830;DHT22;76277;49.212;16.680;2024-03-29T16:01:22;36.26;31.34
85830;DHT22;76277;49.212;16.680;2024-03-29T16:04:06;36.26;31.34
85830;DHT22;76277;49.212;16.680;2024-03-29T16:06:51;36.26;31.34
85830;DHT22;76277;49.212;16.680;2024-03-29T16:09:35;36.26;31.34
85830;DHT22;76277;49.212;16.680;2024-03-29T16:12:20;36.26;31.34
85830;DHT22;76277;49.212;16.680;2024-03-29T16:15:05;36.26;31.34
85830;DHT22;76277;49.212;16.680;2024-03-29T16:17:49;34.79;32.51
85830;DHT22;76277;49.212;16.680;2024-03-29T16:20:34;34.79;32.51
85830;DHT22;76277;49.212;16.680;2024-03-29T16:23:19;34.79;32.51
85830;DHT22;76277;49.212;16.680;2024-03-29T16:26:04;34.79;32.51
85830;DHT22;76277;49.212;16.680;2024-03-29T16:28:48;34.79;32.51
85830;DHT22;76277;49.212;16.680;2024-03-29T16:31:33;28.54;40.15
85830;DHT22;76277;49.212;16.680;2024-03-29T16:34:17;28.54;40.15
85830;DHT22;76277;49.212;16.680;2024-03-29T16:37:02;28.54;40.15
85830;DHT22;76277;49.212;16.680;2024-03-29T16:39:47;28.54;40.15
85830;DHT22;76277;49.212;16.680;2024-03-29T16:42:31;28.54;40.15
85830;DHT22;76277;49.212;16.680;2024-03-29T16:45:16;28.54;40.15
85830;DHT22;76277;49.212;16.680;2024-03-29T16:48:01;22.99;49.18
85830;DHT22;76277;49.212;16.680;2024-03-29T16:50:45;22.99;49.18
85830;DHT22;76277;49.212;16.680;2024-03-29T16:53:30;22.99;49.18
85830;DHT22;76277;49.212;16.680;2024-03-29T16:56:15;22.99;49.18
85830;DHT22;76277;49.212;16.680;2024-03-29T16:58:59;22.99;49.18
85830;DHT22;76277;49.212;16.680;2024-03-29T17:01:44;19.77;56.39
85830;DHT22;76277;49.212;16.680;2024-03-29T17:04:29;19.77;56.39
85830;DHT22;76277;49.212;16.680;2024-03-29T17:07:13;19.77;56.39
85830;DHT22;76277;49.212;16.680;2024-03-29T17:09:58;19.77;56.39
85830;DHT22;76277;49.212;16.680;2024-03-29T17:12:43;19.77;56.39
85830;DHT22;76277;49.212;16.680;2024-03-29T17:15:27;19.77;56.39